sensor_id;sensor_type;location;lat;lon;timestamp;P1;durP1;ratioP1;P2;durP2;ratioP2
46284;SDS011;32018;59.182;18.148;2022-12-18T00:01:19;7.15;;;6.53;;
46284;SDS011;32018;59.182;18.148;2022-12-18T00:03:44;7.97;;;7.20;;
46284;SDS011;32018;59.182;18.148;2022-12-18T00:06:10;7.72;;;7.03;;
46284;SDS011;32018;59.182;18.148;2022-12-18T00:08:36;7.80;;;7.10;;
46284;SDS011;32018;59.182;18.148;2022-12-18T00:11:05;8.43;;;7.70;;
46284;SDS011;32018;59.182;18.148;2022-12-18T00:13:31;10.45;;;9.57;;
46284;SDS011;32018;59.182;18.148;2022-12-18T00:16:00;8.75;;;8.15;;
46284;SDS011;32018;59.182;18.148;2022-12-18T00:18:26;7.18;;;6.57;;
46284;SDS011;32018;59.182;18.148;2022-12-18T00:20:51;7.50;;;6.93;;
46284;SDS011;32018;59.182;18.148;2022-12-18T00:23:16;10.60;;;7.18;;
46284;SDS011;32018;59.182;18.148;2022-12-18T00:25:41;7.85;;;7.25;;
46284;SDS011;32018;59.182;18.148;2022-12-18T00:28:07;7.15;;;6.55;;
46284;SDS011;32018;59.182;18.148;2022-12-18T00:30:32;8.05;;;7.40;;
46284;SDS011;32018;59.182;18.148;2022-12-18T00:32:58;7.93;;;7.22;;
46284;SDS011;32018;59.182;18.148;2022-12-18T00:35:23;7.80;;;7.13;;
46284;SDS011;32018;59.182;18.148;2022-12-18T00:37:48;8.05;;;7.25;;
46284;SDS011;32018;59.182;18.148;2022-12-18T00:40:13;8.23;;;7.53;;
46284;SDS011;32018;59.182;18.148;2022-12-18T00:42:39;6.18;;;5.78;;
46284;SDS011;32018;59.182;18.148;2022-12-18T00:45:28;7.13;;;6.53;;
46284;SDS011;32018;59.182;18.148;2022-12-18T00:47:54;7.93;;;6.95;;
46284;SDS011;32018;59.182;18.148;2022-12-18T00:50:20;8.25;;;7.45;;
46284;SDS011;32018;59.182;18.148;2022-12-18T00:52:46;6.60;;;6.05;;
46284;SDS011;32018;59.182;18.148;2022-12-18T00:55:11;5.68;;;5.28;;
46284;SDS011;32018;59.182;18.148;2022-12-18T00:57:37;12.50;;;6.90;;
46284;SDS011;32018;59.182;18.148;2022-12-18T01:00:03;6.28;;;5.88;;
46284;SDS011;32018;59.182;18.148;2022-12-18T01:02:28;7.53;;;6.93;;
46284;SDS011;32018;59.182;18.148;2022-12-18T01:04:54;7.88;;;7.18;;
46284;SDS011;32018;59.182;18.148;2022-12-18T01:07:19;7.30;;;6.30;;
46284;SDS011;32018;59.182;18.148;2022-12-18T01:09:45;7.55;;;7.05;;
46284;SDS011;32018;59.182;18.148;2022-12-18T01:12:10;7.63;;;7.03;;
46284;SDS011;32018;59.182;18.148;2022-12-18T01:14:36;7.57;;;7.03;;
46284;SDS011;32018;59.182;18.148;2022-12-18T01:17:02;7.82;;;7.00;;
46284;SDS011;32018;59.182;18.148;2022-12-18T01:19:28;7.53;;;6.95;;
46284;SDS011;32018;59.182;18.148;2022-12-18T01:21:54;7.38;;;6.78;;
46284;SDS011;32018;59.182;18.148;2022-12-18T01:24:19;7.25;;;6.75;;
46284;SDS011;32018;59.182;18.148;2022-12-18T01:26:45;7.55;;;6.95;;
46284;SDS011;32018;59.182;18.148;2022-12-18T01:29:10;7.32;;;6.63;;
46284;SDS011;32018;59.182;18.148;2022-12-18T01:31:35;6.75;;;6.15;;
46284;SDS011;32018;59.182;18.148;2022-12-18T01:34:00;7.78;;;7.20;;
46284;SDS011;32018;59.182;18.148;2022-12-18T01:36:27;7.55;;;7.03;;
46284;SDS011;32018;59.182;18.148;2022-12-18T01:38:53;7.95;;;7.35;;
46284;SDS011;32018;59.182;18.148;2022-12-18T01:41:21;8.05;;;7.45;;
46284;SDS011;32018;59.182;18.148;2022-12-18T01:43:54;8.25;;;7.45;;
46284;SDS011;32018;59.182;18.148;2022-12-18T01:46:21;7.47;;;6.85;;
46284;SDS011;32018;59.182;18.148;2022-12-18T01:48:52;6.55;;;5.97;;
46284;SDS011;32018;59.182;18.148;2022-12-18T01:51:18;8.57;;;7.40;;
46284;SDS011;32018;59.182;18.148;2022-12-18T01:53:44;8.50;;;7.80;;
46284;SDS011;32018;59.182;18.148;2022-12-18T01:56:12;8.38;;;7.68;;
46284;SDS011;32018;59.182;18.148;2022-12-18T01:58:41;7.57;;;7.03;;
46284;SDS011;32018;59.182;18.148;2022-12-18T02:01:08;7.55;;;6.95;;
46284;SDS011;32018;59.182;18.148;2022-12-18T02:03:33;7.75;;;7.13;;
46284;SDS011;32018;59.182;18.148;2022-12-18T02:09:02;7.80;;;7.20;;
46284;SDS011;32018;59.182;18.148;2022-12-18T02:16:44;8.35;;;7.75;;
46284;SDS011;32018;59.182;18.148;2022-12-18T02:19:27;7.93;;;7.22;;
46284;SDS011;32018;59.182;18.148;2022-12-18T02:22:14;5.93;;;5.53;;
46284;SDS011;32018;59.182;18.148;2022-12-18T02:24:48;6.68;;;6.18;;
46284;SDS011;32018;59.182;18.148;2022-12-18T02:27:18;6.85;;;6.35;;
46284;SDS011;32018;59.182;18.148;2022-12-18T02:29:53;8.25;;;7.47;;
46284;SDS011;32018;59.182;18.148;2022-12-18T02:32:22;8.23;;;7.47;;
46284;SDS011;32018;59.182;18.148;2022-12-18T02:34:49;7.20;;;6.65;;
46284;SDS011;32018;59.182;18.148;2022-12-18T02:37:16;8.00;;;7.50;;
46284;SDS011;32018;59.182;18.148;2022-12-18T02:39:43;8.30;;;7.70;;
46284;SDS011;32018;59.182;18.148;2022-12-18T02:42:09;8.52;;;7.82;;
46284;SDS011;32018;59.182;18.148;2022-12-18T02:44:41;7.82;;;7.10;;
46284;SDS011;32018;59.182;18.148;2022-12-18T02:47:08;7.32;;;6.72;;
46284;SDS011;32018;59.182;18.148;2022-12-18T02:49:40;8.48;;;7.68;;
46284;SDS011;32018;59.182;18.148;2022-12-18T03:00:10;8.52;;;7.93;;
46284;SDS011;32018;59.182;18.148;2022-12-18T03:02:44;8.02;;;7.53;;
46284;SDS011;32018;59.182;18.148;2022-12-18T03:05:20;6.97;;;6.20;;
46284;SDS011;32018;59.182;18.148;2022-12-18T03:07:50;7.70;;;7.00;;
46284;SDS011;32018;59.182;18.148;2022-12-18T03:10:19;8.48;;;7.80;;
46284;SDS011;32018;59.182;18.148;2022-12-18T03:12:47;7.88;;;7.28;;
46284;SDS011;32018;59.182;18.148;2022-12-18T03:17:43;7.00;;;6.50;;
46284;SDS011;32018;59.182;18.148;2022-12-18T03:20:14;8.07;;;7.47;;
46284;SDS011;32018;59.182;18.148;2022-12-18T03:22:40;4.77;;;4.47;;
46284;SDS011;32018;59.182;18.148;2022-12-18T03:25:08;7.15;;;6.65;;
46284;SDS011;32018;59.182;18.148;2022-12-18T03:27:35;7.90;;;7.30;;
46284;SDS011;32018;59.182;18.148;2022-12-18T03:30:03;9.07;;;8.18;;
46284;SDS011;32018;59.182;18.148;2022-12-18T03:34:58;7.55;;;6.97;;
46284;SDS011;32018;59.182;18.148;2022-12-18T03:37:25;7.85;;;7.15;;
46284;SDS011;32018;59.182;18.148;2022-12-18T03:39:50;7.95;;;7.32;;
46284;SDS011;32018;59.182;18.148;2022-12-18T03:45:06;7.15;;;6.55;;
46284;SDS011;32018;59.182;18.148;2022-12-18T03:47:35;7.72;;;7.00;;
46284;SDS011;32018;59.182;18.148;2022-12-18T03:50:14;8.02;;;7.30;;
46284;SDS011;32018;59.182;18.148;2022-12-18T03:52:53;8.30;;;7.05;;
46284;SDS011;32018;59.182;18.148;2022-12-18T03:55:22;7.45;;;6.75;;
46284;SDS011;32018;59.182;18.148;2022-12-18T03:57:48;6.57;;;6.07;;
46284;SDS011;32018;59.182;18.148;2022-12-18T04:00:15;7.65;;;6.97;;
46284;SDS011;32018;59.182;18.148;2022-12-18T04:02:45;7.60;;;7.00;;
46284;SDS011;32018;59.182;18.148;2022-12-18T04:07:37;7.40;;;6.80;;
46284;SDS011;32018;59.182;18.148;2022-12-18T04:10:03;7.63;;;6.93;;
46284;SDS011;32018;59.182;18.148;2022-12-18T04:12:30;6.93;;;6.43;;
46284;SDS011;32018;59.182;18.148;2022-12-18T04:14:56;6.47;;;5.93;;
46284;SDS011;32018;59.182;18.148;2022-12-18T04:17:21;7.00;;;6.50;;
46284;SDS011;32018;59.182;18.148;2022-12-18T04:19:47;7.80;;;7.20;;
46284;SDS011;32018;59.182;18.148;2022-12-18T04:22:12;6.72;;;6.22;;
46284;SDS011;32018;59.182;18.148;2022-12-18T04:24:38;6.38;;;5.85;;
46284;SDS011;32018;59.182;18.148;2022-12-18T04:27:03;7.05;;;6.55;;
46284;SDS011;32018;59.182;18.148;2022-12-18T04:29:29;7.03;;;6.43;;
46284;SDS011;32018;59.182;18.148;2022-12-18T04:31:54;7.07;;;6.57;;
46284;SDS011;32018;59.182;18.148;2022-12-18T04:34:19;6.88;;;6.38;;
46284;SDS011;32018;59.182;18.148;2022-12-18T04:36:45;7.15;;;6.57;;
46284;SDS011;32018;59.182;18.148;2022-12-18T04:39:10;5.95;;;5.53;;
46284;SDS011;32018;59.182;18.148;2022-12-18T04:41:35;8.10;;;7.50;;
46284;SDS011;32018;59.182;18.148;2022-12-18T04:44:01;7.45;;;6.85;;
46284;SDS011;32018;59.182;18.148;2022-12-18T04:46:26;7.60;;;7.00;;
46284;SDS011;32018;59.182;18.148;2022-12-18T04:48:51;7.53;;;6.93;;
46284;SDS011;32018;59.182;18.148;2022-12-18T04:51:17;7.40;;;6.30;;
46284;SDS011;32018;59.182;18.148;2022-12-18T04:53:42;7.82;;;7.15;;
46284;SDS011;32018;59.182;18.148;2022-12-18T04:56:09;6.03;;;5.55;;
46284;SDS011;32018;59.182;18.148;2022-12-18T04:58:35;7.93;;;7.22;;
46284;SDS011;32018;59.182;18.148;2022-12-18T05:01:00;6.55;;;6.07;;
46284;SDS011;32018;59.182;18.148;2022-12-18T05:03:25;8.13;;;7.53;;
46284;SDS011;32018;59.182;18.148;2022-12-18T05:05:51;8.02;;;7.43;;
46284;SDS011;32018;59.182;18.148;2022-12-18T05:08:16;8.50;;;7.80;;
46284;SDS011;32018;59.182;18.148;2022-12-18T05:10:42;8.07;;;7.43;;
46284;SDS011;32018;59.182;18.148;2022-12-18T05:13:07;7.38;;;6.78;;
46284;SDS011;32018;59.182;18.148;2022-12-18T05:15:33;7.03;;;6.32;;
46284;SDS011;32018;59.182;18.148;2022-12-18T05:17:58;8.30;;;7.60;;
46284;SDS011;32018;59.182;18.148;2022-12-18T05:20:24;7.55;;;6.95;;
46284;SDS011;32018;59.182;18.148;2022-12-18T05:22:50;7.65;;;7.05;;
46284;SDS011;32018;59.182;18.148;2022-12-18T05:25:15;8.05;;;7.30;;
46284;SDS011;32018;59.182;18.148;2022-12-18T05:27:40;6.90;;;6.40;;
46284;SDS011;32018;59.182;18.148;2022-12-18T05:30:06;7.55;;;6.95;;
46284;SDS011;32018;59.182;18.148;2022-12-18T05:32:32;7.70;;;7.10;;
46284;SDS011;32018;59.182;18.148;2022-12-18T05:34:57;8.05;;;7.38;;
46284;SDS011;32018;59.182;18.148;2022-12-18T05:37:22;8.30;;;7.60;;
46284;SDS011;32018;59.182;18.148;2022-12-18T05:39:48;7.78;;;7.18;;
46284;SDS011;32018;59.182;18.148;2022-12-18T05:42:13;7.75;;;7.20;;
46284;SDS011;32018;59.182;18.148;2022-12-18T05:44:39;8.48;;;7.72;;
46284;SDS011;32018;59.182;18.148;2022-12-18T05:47:04;8.02;;;7.32;;
46284;SDS011;32018;59.182;18.148;2022-12-18T05:49:30;8.20;;;7.53;;
46284;SDS011;32018;59.182;18.148;2022-12-18T05:51:55;7.72;;;7.13;;
46284;SDS011;32018;59.182;18.148;2022-12-18T05:54:20;8.07;;;7.47;;
46284;SDS011;32018;59.182;18.148;2022-12-18T05:56:46;8.40;;;7.60;;
46284;SDS011;32018;59.182;18.148;2022-12-18T05:59:12;8.77;;;7.97;;
46284;SDS011;32018;59.182;18.148;2022-12-18T06:01:37;8.93;;;8.13;;
46284;SDS011;32018;59.182;18.148;2022-12-18T06:04:02;8.40;;;7.72;;
46284;SDS011;32018;59.182;18.148;2022-12-18T06:06:28;7.90;;;7.30;;
46284;SDS011;32018;59.182;18.148;2022-12-18T06:08:54;9.15;;;8.35;;
46284;SDS011;32018;59.182;18.148;2022-12-18T06:11:20;8.63;;;7.93;;
46284;SDS011;32018;59.182;18.148;2022-12-18T06:13:46;8.80;;;7.78;;
46284;SDS011;32018;59.182;18.148;2022-12-18T06:16:14;8.43;;;7.82;;
46284;SDS011;32018;59.182;18.148;2022-12-18T06:18:39;9.20;;;8.50;;
46284;SDS011;32018;59.182;18.148;2022-12-18T06:21:05;9.43;;;8.63;;
46284;SDS011;32018;59.182;18.148;2022-12-18T06:23:30;9.05;;;8.27;;
46284;SDS011;32018;59.182;18.148;2022-12-18T06:25:55;9.30;;;8.50;;
46284;SDS011;32018;59.182;18.148;2022-12-18T06:28:21;8.45;;;7.75;;
46284;SDS011;32018;59.182;18.148;2022-12-18T06:30:46;8.68;;;7.97;;
46284;SDS011;32018;59.182;18.148;2022-12-18T06:33:13;8.40;;;7.78;;
46284;SDS011;32018;59.182;18.148;2022-12-18T06:35:38;9.65;;;8.85;;
46284;SDS011;32018;59.182;18.148;2022-12-18T06:38:03;13.15;;;9.23;;
46284;SDS011;32018;59.182;18.148;2022-12-18T06:40:29;8.10;;;7.45;;
46284;SDS011;32018;59.182;18.148;2022-12-18T06:42:54;7.85;;;7.25;;
46284;SDS011;32018;59.182;18.148;2022-12-18T06:45:20;8.80;;;8.15;;
46284;SDS011;32018;59.182;18.148;2022-12-18T06:47:45;8.25;;;7.63;;
46284;SDS011;32018;59.182;18.148;2022-12-18T06:50:10;8.45;;;7.78;;
46284;SDS011;32018;59.182;18.148;2022-12-18T06:52:36;9.57;;;8.77;;
46284;SDS011;32018;59.182;18.148;2022-12-18T06:55:01;9.43;;;8.63;;
46284;SDS011;32018;59.182;18.148;2022-12-18T06:57:27;8.90;;;8.10;;
46284;SDS011;32018;59.182;18.148;2022-12-18T06:59:52;9.77;;;8.93;;
46284;SDS011;32018;59.182;18.148;2022-12-18T07:02:17;9.75;;;8.95;;
46284;SDS011;32018;59.182;18.148;2022-12-18T07:04:43;9.88;;;9.07;;
46284;SDS011;32018;59.182;18.148;2022-12-18T07:07:08;8.60;;;7.93;;
46284;SDS011;32018;59.182;18.148;2022-12-18T07:09:33;9.35;;;8.35;;
46284;SDS011;32018;59.182;18.148;2022-12-18T07:11:59;9.52;;;8.80;;
46284;SDS011;32018;59.182;18.148;2022-12-18T07:14:24;9.07;;;8.32;;
46284;SDS011;32018;59.182;18.148;2022-12-18T07:16:49;8.63;;;7.93;;
46284;SDS011;32018;59.182;18.148;2022-12-18T07:19:15;11.15;;;8.80;;
46284;SDS011;32018;59.182;18.148;2022-12-18T07:21:40;9.15;;;8.35;;
46284;SDS011;32018;59.182;18.148;2022-12-18T07:24:05;8.77;;;8.07;;
46284;SDS011;32018;59.182;18.148;2022-12-18T07:26:31;10.23;;;9.32;;
46284;SDS011;32018;59.182;18.148;2022-12-18T07:28:57;10.38;;;9.57;;
46284;SDS011;32018;59.182;18.148;2022-12-18T07:31:23;9.55;;;8.75;;
46284;SDS011;32018;59.182;18.148;2022-12-18T07:33:49;9.20;;;8.27;;
46284;SDS011;32018;59.182;18.148;2022-12-18T07:36:14;9.68;;;8.88;;
46284;SDS011;32018;59.182;18.148;2022-12-18T07:38:40;9.50;;;8.65;;
46284;SDS011;32018;59.182;18.148;2022-12-18T07:41:07;10.77;;;9.77;;
46284;SDS011;32018;59.182;18.148;2022-12-18T07:43:32;10.25;;;9.38;;
46284;SDS011;32018;59.182;18.148;2022-12-18T07:45:58;10.68;;;9.68;;
46284;SDS011;32018;59.182;18.148;2022-12-18T07:48:23;9.98;;;9.18;;
46284;SDS011;32018;59.182;18.148;2022-12-18T07:50:48;10.32;;;9.30;;
46284;SDS011;32018;59.182;18.148;2022-12-18T07:53:14;10.25;;;9.35;;
46284;SDS011;32018;59.182;18.148;2022-12-18T07:55:39;10.98;;;9.38;;
46284;SDS011;32018;59.182;18.148;2022-12-18T07:58:06;9.55;;;8.75;;
46284;SDS011;32018;59.182;18.148;2022-12-18T08:00:31;9.93;;;9.20;;
46284;SDS011;32018;59.182;18.148;2022-12-18T08:02:57;8.23;;;7.60;;
46284;SDS011;32018;59.182;18.148;2022-12-18T08:05:22;9.75;;;8.93;;
46284;SDS011;32018;59.182;18.148;2022-12-18T08:07:47;8.88;;;8.13;;
46284;SDS011;32018;59.182;18.148;2022-12-18T08:10:13;10.52;;;9.63;;
46284;SDS011;32018;59.182;18.148;2022-12-18T08:12:38;11.02;;;10.07;;
46284;SDS011;32018;59.182;18.148;2022-12-18T08:15:04;8.68;;;7.65;;
46284;SDS011;32018;59.182;18.148;2022-12-18T08:17:29;10.15;;;9.35;;
46284;SDS011;32018;59.182;18.148;2022-12-18T14:02:32;12.98;;;9.30;;
46284;SDS011;32018;59.182;18.148;2022-12-18T14:04:59;8.18;;;7.35;;
46284;SDS011;32018;59.182;18.148;2022-12-18T14:07:25;8.27;;;7.47;;
46284;SDS011;32018;59.182;18.148;2022-12-18T14:09:57;7.32;;;6.78;;
46284;SDS011;32018;59.182;18.148;2022-12-18T14:12:25;9.25;;;7.88;;
46284;SDS011;32018;59.182;18.148;2022-12-18T14:15:22;8.70;;;7.65;;
46284;SDS011;32018;59.182;18.148;2022-12-18T14:17:50;7.40;;;6.30;;
46284;SDS011;32018;59.182;18.148;2022-12-18T14:20:15;7.10;;;6.32;;
46284;SDS011;32018;59.182;18.148;2022-12-18T14:22:45;6.88;;;5.68;;
46284;SDS011;32018;59.182;18.148;2022-12-18T14:27:38;7.05;;;5.88;;
46284;SDS011;32018;59.182;18.148;2022-12-18T14:30:26;7.88;;;6.25;;
46284;SDS011;32018;59.182;18.148;2022-12-18T14:35:29;7.93;;;5.65;;
46284;SDS011;32018;59.182;18.148;2022-12-18T14:38:08;5.75;;;5.25;;
46284;SDS011;32018;59.182;18.148;2022-12-18T14:40:34;5.70;;;5.20;;
46284;SDS011;32018;59.182;18.148;2022-12-18T14:42:59;6.75;;;5.22;;
46284;SDS011;32018;59.182;18.148;2022-12-18T14:45:37;6.72;;;4.88;;
46284;SDS011;32018;59.182;18.148;2022-12-18T14:48:06;9.82;;;4.80;;
46284;SDS011;32018;59.182;18.148;2022-12-18T14:50:32;5.47;;;4.85;;
46284;SDS011;32018;59.182;18.148;2022-12-18T14:52:57;5.88;;;4.65;;
46284;SDS011;32018;59.182;18.148;2022-12-18T14:55:23;5.43;;;4.78;;
46284;SDS011;32018;59.182;18.148;2022-12-18T14:57:49;5.80;;;5.20;;
46284;SDS011;32018;59.182;18.148;2022-12-18T15:00:16;5.78;;;4.95;;
46284;SDS011;32018;59.182;18.148;2022-12-18T15:02:42;4.38;;;3.97;;
46284;SDS011;32018;59.182;18.148;2022-12-18T15:05:19;4.28;;;3.97;;
46284;SDS011;32018;59.182;18.148;2022-12-18T15:07:46;5.60;;;4.38;;
46284;SDS011;32018;59.182;18.148;2022-12-18T15:10:13;4.18;;;3.78;;
46284;SDS011;32018;59.182;18.148;2022-12-18T15:12:42;4.35;;;3.95;;
46284;SDS011;32018;59.182;18.148;2022-12-18T15:16:08;5.40;;;4.40;;
46284;SDS011;32018;59.182;18.148;2022-12-18T15:18:05;4.88;;;4.47;;
46284;SDS011;32018;59.182;18.148;2022-12-18T15:20:41;5.22;;;3.70;;
46284;SDS011;32018;59.182;18.148;2022-12-18T15:23:26;4.38;;;3.53;;
46284;SDS011;32018;59.182;18.148;2022-12-18T15:28:23;4.57;;;4.15;;
46284;SDS011;32018;59.182;18.148;2022-12-18T15:33:30;4.63;;;3.58;;
46284;SDS011;32018;59.182;18.148;2022-12-18T15:35:56;4.75;;;3.63;;
46284;SDS011;32018;59.182;18.148;2022-12-18T15:38:22;4.30;;;3.65;;
46284;SDS011;32018;59.182;18.148;2022-12-18T15:40:47;3.28;;;2.63;;
46284;SDS011;32018;59.182;18.148;2022-12-18T15:43:12;5.38;;;3.42;;
46284;SDS011;32018;59.182;18.148;2022-12-18T15:45:56;4.43;;;3.28;;
46284;SDS011;32018;59.182;18.148;2022-12-18T15:48:21;4.72;;;2.60;;
46284;SDS011;32018;59.182;18.148;2022-12-18T15:50:48;4.00;;;3.15;;
46284;SDS011;32018;59.182;18.148;2022-12-18T15:53:13;3.55;;;3.03;;
46284;SDS011;32018;59.182;18.148;2022-12-18T15:55:39;3.10;;;2.80;;
46284;SDS011;32018;59.182;18.148;2022-12-18T15:58:22;3.20;;;2.60;;
46284;SDS011;32018;59.182;18.148;2022-12-18T16:00:47;5.18;;;3.30;;
46284;SDS011;32018;59.182;18.148;2022-12-18T16:03:13;2.65;;;2.20;;
46284;SDS011;32018;59.182;18.148;2022-12-18T16:05:38;3.42;;;3.00;;
46284;SDS011;32018;59.182;18.148;2022-12-18T16:08:04;4.80;;;2.85;;
46284;SDS011;32018;59.182;18.148;2022-12-18T16:10:29;3.67;;;2.50;;
46284;SDS011;32018;59.182;18.148;2022-12-18T16:12:55;4.13;;;2.60;;
46284;SDS011;32018;59.182;18.148;2022-12-18T16:15:20;2.92;;;2.50;;
46284;SDS011;32018;59.182;18.148;2022-12-18T16:17:46;2.95;;;2.05;;
46284;SDS011;32018;59.182;18.148;2022-12-18T16:20:12;4.28;;;2.25;;
46284;SDS011;32018;59.182;18.148;2022-12-18T16:22:39;3.58;;;2.25;;
46284;SDS011;32018;59.182;18.148;2022-12-18T16:25:05;4.53;;;2.60;;
46284;SDS011;32018;59.182;18.148;2022-12-18T16:27:30;2.92;;;2.13;;
46284;SDS011;32018;59.182;18.148;2022-12-18T16:29:56;3.38;;;2.13;;
46284;SDS011;32018;59.182;18.148;2022-12-18T16:32:21;2.55;;;2.35;;
46284;SDS011;32018;59.182;18.148;2022-12-18T16:34:46;3.85;;;2.35;;
46284;SDS011;32018;59.182;18.148;2022-12-18T16:37:13;3.38;;;2.28;;
46284;SDS011;32018;59.182;18.148;2022-12-18T16:39:38;4.45;;;2.65;;
46284;SDS011;32018;59.182;18.148;2022-12-18T16:42:05;3.10;;;2.30;;
46284;SDS011;32018;59.182;18.148;2022-12-18T16:44:31;3.47;;;2.05;;
46284;SDS011;32018;59.182;18.148;2022-12-18T16:46:56;4.45;;;2.15;;
46284;SDS011;32018;59.182;18.148;2022-12-18T16:49:26;9.30;;;3.75;;
46284;SDS011;32018;59.182;18.148;2022-12-18T16:51:52;2.90;;;2.00;;
46284;SDS011;32018;59.182;18.148;2022-12-18T16:54:17;2.88;;;2.38;;
46284;SDS011;32018;59.182;18.148;2022-12-18T16:56:43;4.00;;;2.28;;
46284;SDS011;32018;59.182;18.148;2022-12-18T16:59:09;2.38;;;2.17;;
46284;SDS011;32018;59.182;18.148;2022-12-18T17:01:35;3.95;;;2.17;;
46284;SDS011;32018;59.182;18.148;2022-12-18T17:04:02;3.58;;;2.58;;
46284;SDS011;32018;59.182;18.148;2022-12-18T17:06:28;2.17;;;1.80;;
46284;SDS011;32018;59.182;18.148;2022-12-18T17:08:54;3.97;;;2.00;;
46284;SDS011;32018;59.182;18.148;2022-12-18T17:11:20;4.07;;;2.03;;
46284;SDS011;32018;59.182;18.148;2022-12-18T17:13:45;4.45;;;1.70;;
46284;SDS011;32018;59.182;18.148;2022-12-18T17:16:10;4.50;;;2.08;;
46284;SDS011;32018;59.182;18.148;2022-12-18T17:18:36;3.35;;;1.73;;
46284;SDS011;32018;59.182;18.148;2022-12-18T17:21:02;4.07;;;1.90;;
46284;SDS011;32018;59.182;18.148;2022-12-18T17:23:28;4.93;;;2.20;;
46284;SDS011;32018;59.182;18.148;2022-12-18T17:25:55;4.05;;;2.08;;
46284;SDS011;32018;59.182;18.148;2022-12-18T17:28:20;3.10;;;2.05;;
46284;SDS011;32018;59.182;18.148;2022-12-18T17:30:46;4.07;;;2.05;;
46284;SDS011;32018;59.182;18.148;2022-12-18T17:33:11;2.10;;;1.90;;
46284;SDS011;32018;59.182;18.148;2022-12-18T17:35:36;7.43;;;1.80;;
46284;SDS011;32018;59.182;18.148;2022-12-18T17:38:02;3.08;;;1.70;;
46284;SDS011;32018;59.182;18.148;2022-12-18T17:40:27;3.75;;;1.95;;
46284;SDS011;32018;59.182;18.148;2022-12-18T17:42:52;3.80;;;2.05;;
46284;SDS011;32018;59.182;18.148;2022-12-18T17:45:18;3.25;;;1.90;;
46284;SDS011;32018;59.182;18.148;2022-12-18T17:47:43;3.63;;;1.80;;
46284;SDS011;32018;59.182;18.148;2022-12-18T17:50:08;5.85;;;2.10;;
46284;SDS011;32018;59.182;18.148;2022-12-18T17:52:33;2.85;;;1.75;;
46284;SDS011;32018;59.182;18.148;2022-12-18T17:54:59;4.93;;;1.70;;
46284;SDS011;32018;59.182;18.148;2022-12-18T17:57:24;4.20;;;2.00;;
46284;SDS011;32018;59.182;18.148;2022-12-18T17:59:49;5.15;;;2.30;;
46284;SDS011;32018;59.182;18.148;2022-12-18T18:02:15;4.82;;;1.75;;
46284;SDS011;32018;59.182;18.148;2022-12-18T18:04:40;3.90;;;2.00;;
46284;SDS011;32018;59.182;18.148;2022-12-18T18:07:05;3.60;;;1.67;;
46284;SDS011;32018;59.182;18.148;2022-12-18T18:09:31;3.95;;;2.17;;
46284;SDS011;32018;59.182;18.148;2022-12-18T18:11:56;5.47;;;1.95;;
46284;SDS011;32018;59.182;18.148;2022-12-18T18:14:40;3.22;;;1.80;;
46284;SDS011;32018;59.182;18.148;2022-12-18T18:17:05;2.90;;;1.77;;
46284;SDS011;32018;59.182;18.148;2022-12-18T18:19:31;2.70;;;1.77;;
46284;SDS011;32018;59.182;18.148;2022-12-18T18:21:57;3.10;;;1.83;;
46284;SDS011;32018;59.182;18.148;2022-12-18T18:24:22;3.03;;;1.67;;
46284;SDS011;32018;59.182;18.148;2022-12-18T18:26:48;3.42;;;1.67;;
46284;SDS011;32018;59.182;18.148;2022-12-18T18:29:15;9.20;;;2.10;;
46284;SDS011;32018;59.182;18.148;2022-12-18T18:31:40;5.57;;;1.83;;
46284;SDS011;32018;59.182;18.148;2022-12-18T18:34:05;2.90;;;1.77;;
46284;SDS011;32018;59.182;18.148;2022-12-18T18:36:31;3.60;;;1.65;;
46284;SDS011;32018;59.182;18.148;2022-12-18T18:38:59;5.07;;;2.20;;
46284;SDS011;32018;59.182;18.148;2022-12-18T18:41:25;3.47;;;1.63;;
46284;SDS011;32018;59.182;18.148;2022-12-18T18:43:54;6.75;;;1.95;;
46284;SDS011;32018;59.182;18.148;2022-12-18T18:46:20;4.10;;;2.10;;
46284;SDS011;32018;59.182;18.148;2022-12-18T18:48:45;4.63;;;2.30;;
46284;SDS011;32018;59.182;18.148;2022-12-18T18:51:12;6.18;;;1.70;;
46284;SDS011;32018;59.182;18.148;2022-12-18T18:53:38;3.28;;;1.60;;
46284;SDS011;32018;59.182;18.148;2022-12-18T18:56:04;4.90;;;1.90;;
46284;SDS011;32018;59.182;18.148;2022-12-18T18:58:30;5.00;;;2.22;;
46284;SDS011;32018;59.182;18.148;2022-12-18T19:00:56;2.70;;;1.67;;
46284;SDS011;32018;59.182;18.148;2022-12-18T19:03:22;3.03;;;1.83;;
46284;SDS011;32018;59.182;18.148;2022-12-18T19:05:52;6.45;;;1.95;;
46284;SDS011;32018;59.182;18.148;2022-12-18T19:08:19;6.63;;;2.08;;
46284;SDS011;32018;59.182;18.148;2022-12-18T19:10:45;3.90;;;1.70;;
46284;SDS011;32018;59.182;18.148;2022-12-18T19:13:11;5.88;;;2.13;;
46284;SDS011;32018;59.182;18.148;2022-12-18T19:15:46;3.58;;;1.98;;
46284;SDS011;32018;59.182;18.148;2022-12-18T19:18:12;4.93;;;1.88;;
46284;SDS011;32018;59.182;18.148;2022-12-18T19:20:37;7.20;;;1.80;;
46284;SDS011;32018;59.182;18.148;2022-12-18T19:23:02;4.78;;;2.15;;
46284;SDS011;32018;59.182;18.148;2022-12-18T19:25:28;4.38;;;2.10;;
46284;SDS011;32018;59.182;18.148;2022-12-18T19:27:56;4.63;;;1.50;;
46284;SDS011;32018;59.182;18.148;2022-12-18T19:30:22;6.10;;;1.80;;
46284;SDS011;32018;59.182;18.148;2022-12-18T19:32:47;3.45;;;1.52;;
46284;SDS011;32018;59.182;18.148;2022-12-18T19:35:13;7.03;;;2.15;;
46284;SDS011;32018;59.182;18.148;2022-12-18T19:37:38;4.35;;;2.47;;
46284;SDS011;32018;59.182;18.148;2022-12-18T19:40:03;4.80;;;2.35;;
46284;SDS011;32018;59.182;18.148;2022-12-18T19:42:29;4.47;;;2.08;;
46284;SDS011;32018;59.182;18.148;2022-12-18T19:44:54;2.20;;;1.58;;
46284;SDS011;32018;59.182;18.148;2022-12-18T19:47:19;6.90;;;2.45;;
46284;SDS011;32018;59.182;18.148;2022-12-18T19:49:45;6.57;;;2.22;;
46284;SDS011;32018;59.182;18.148;2022-12-18T19:52:10;23.65;;;2.85;;
46284;SDS011;32018;59.182;18.148;2022-12-18T19:54:35;4.40;;;2.25;;
46284;SDS011;32018;59.182;18.148;2022-12-18T19:57:01;6.93;;;3.35;;
46284;SDS011;32018;59.182;18.148;2022-12-18T19:59:26;5.40;;;2.20;;
46284;SDS011;32018;59.182;18.148;2022-12-18T20:01:51;3.20;;;1.77;;
46284;SDS011;32018;59.182;18.148;2022-12-18T20:04:18;3.40;;;1.80;;
46284;SDS011;32018;59.182;18.148;2022-12-18T20:06:47;8.00;;;2.38;;
46284;SDS011;32018;59.182;18.148;2022-12-18T20:09:13;3.97;;;2.13;;
46284;SDS011;32018;59.182;18.148;2022-12-18T20:11:39;5.93;;;1.80;;
46284;SDS011;32018;59.182;18.148;2022-12-18T20:14:04;5.13;;;2.20;;
46284;SDS011;32018;59.182;18.148;2022-12-18T20:16:30;3.58;;;2.05;;
46284;SDS011;32018;59.182;18.148;2022-12-18T20:18:56;7.03;;;2.75;;
46284;SDS011;32018;59.182;18.148;2022-12-18T20:21:22;3.78;;;1.98;;
46284;SDS011;32018;59.182;18.148;2022-12-18T20:23:47;5.07;;;1.98;;
46284;SDS011;32018;59.182;18.148;2022-12-18T20:26:13;4.07;;;2.10;;
46284;SDS011;32018;59.182;18.148;2022-12-18T20:28:38;5.00;;;1.90;;
46284;SDS011;32018;59.182;18.148;2022-12-18T20:31:04;4.25;;;1.83;;
46284;SDS011;32018;59.182;18.148;2022-12-18T20:33:30;7.63;;;2.08;;
46284;SDS011;32018;59.182;18.148;2022-12-18T20:35:59;8.38;;;1.88;;
46284;SDS011;32018;59.182;18.148;2022-12-18T20:38:25;3.85;;;1.80;;
46284;SDS011;32018;59.182;18.148;2022-12-18T20:40:50;3.08;;;1.58;;
46284;SDS011;32018;59.182;18.148;2022-12-18T20:43:16;4.78;;;2.10;;
46284;SDS011;32018;59.182;18.148;2022-12-18T20:45:41;4.60;;;1.92;;
46284;SDS011;32018;59.182;18.148;2022-12-18T20:48:06;5.10;;;1.70;;
46284;SDS011;32018;59.182;18.148;2022-12-18T20:50:31;8.57;;;2.22;;